Time;durP1;ratioP1;P1;durP2;ratioP2;P2;SDS_P1;SDS_P2;PMS_P1;PMS_P2;Temp;Humidity;BMP_temperature;BMP_pressure;BME280_temperature;BME280_humidity;BME280_pressure;Samples;Min_cycle;Max_cycle;Signal;HPM_P1;HPM_P2
2023/08/29 00:00:08;;;;;;;24.30;11.40;;;;;;;-128.00;-1.00;-1.00;105564;1252;1004328;-80
2023/08/29 00:02:54;;;;;;;18.30;10.20;;;;;;;-128.00;-1.00;-1.00;105573;1253;1058018;-80
2023/08/29 00:05:21;;;;;;;18.40;12.00;;;;;;;-128.00;-1.00;-1.00;105628;1254;1005005;-80
2023/08/29 00:07:47;;;;;;;21.00;12.10;;;;;;;-128.00;-1.00;-1.00;105536;1254;1004276;-80
2023/08/29 00:10:14;;;;;;;18.00;10.80;;;;;;;-128.00;-1.00;-1.00;105605;1253;1004338;-80
2023/08/29 00:12:41;;;;;;;15.30;11.30;;;;;;;-128.00;-1.00;-1.00;105572;1254;1004164;-80
2023/08/29 00:15:10;;;;;;;13.80;10.80;;;;;;;-128.00;-1.00;-1.00;105585;1254;1005018;-80
2023/08/29 00:17:37;;;;;;;12.90;9.80;;;;;;;-128.00;-1.00;-1.00;105527;1253;1060101;-80
2023/08/29 00:20:03;;;;;;;16.20;10.10;;;;;;;-128.00;-1.00;-1.00;105565;1254;1003759;-81
2023/08/29 00:22:30;;;;;;;15.70;11.20;;;;;;;-128.00;-1.00;-1.00;105470;1253;1004314;-80
2023/08/29 00:24:57;;;;;;;13.80;10.10;;;;;;;-128.00;-1.00;-1.00;105429;1254;1004286;-80
2023/08/29 00:27:24;;;;;;;15.60;9.90;;;;;;;-128.00;-1.00;-1.00;105418;1253;1004892;-80
2023/08/29 00:29:51;;;;;;;17.50;12.80;;;;;;;-128.00;-1.00;-1.00;105425;1254;1004776;-80
2023/08/29 00:32:17;;;;;;;16.90;11.60;;;;;;;-128.00;-1.00;-1.00;105461;1253;1003551;-80
2023/08/29 00:34:44;;;;;;;18.10;12.70;;;;;;;-128.00;-1.00;-1.00;105429;1253;1004028;-80
2023/08/29 00:37:10;;;;;;;13.10;9.70;;;;;;;-128.00;-1.00;-1.00;105468;1254;1004421;-80
2023/08/29 00:39:37;;;;;;;15.30;12.00;;;;;;;-128.00;-1.00;-1.00;105429;1254;1004806;-80
2023/08/29 00:42:04;;;;;;;14.90;11.40;;;;;;;-128.00;-1.00;-1.00;105255;1255;1004574;-80
2023/08/29 00:44:30;;;;;;;19.90;11.20;;;;;;;-128.00;-1.00;-1.00;105355;1254;1003992;-80
2023/08/29 00:46:57;;;;;;;13.20;10.10;;;;;;;-128.00;-1.00;-1.00;105384;1254;1004373;-81
2023/08/29 00:49:25;;;;;;;13.90;9.40;;;;;;;-128.00;-1.00;-1.00;105384;1254;1004201;-83
2023/08/29 00:51:51;;;;;;;19.60;10.50;;;;;;;-128.00;-1.00;-1.00;105282;1253;1004290;-81
2023/08/29 00:54:18;;;;;;;13.70;10.30;;;;;;;-128.00;-1.00;-1.00;105439;1251;1004539;-81
2023/08/29 00:56:45;;;;;;;13.50;10.40;;;;;;;-128.00;-1.00;-1.00;105559;1252;1004671;-80
2023/08/29 00:59:11;;;;;;;12.60;9.40;;;;;;;-128.00;-1.00;-1.00;105497;1254;1004144;-80
2023/08/29 01:01:38;;;;;;;15.20;9.30;;;;;;;-128.00;-1.00;-1.00;105570;1254;1004418;-80
2023/08/29 01:04:04;;;;;;;10.60;8.70;;;;;;;-128.00;-1.00;-1.00;105427;1253;1004167;-80
2023/08/29 01:06:31;;;;;;;11.30;9.40;;;;;;;-128.00;-1.00;-1.00;105559;1253;1004356;-80
2023/08/29 01:08:58;;;;;;;13.80;8.40;;;;;;;-128.00;-1.00;-1.00;105483;1253;1005109;-80
2023/08/29 01:11:42;;;;;;;13.10;9.40;;;;;;;-128.00;-1.00;-1.00;105567;1254;1004050;-80
2023/08/29 01:14:39;;;;;;;14.20;9.90;;;;;;;-128.00;-1.00;-1.00;105672;1253;1061116;-80
2023/08/29 01:17:05;;;;;;;18.90;10.00;;;;;;;-128.00;-1.00;-1.00;105550;1253;1057992;-80
2023/08/29 01:19:33;;;;;;;13.30;9.50;;;;;;;-128.00;-1.00;-1.00;105574;1252;1003691;-80
2023/08/29 01:22:27;;;;;;;13.40;9.50;;;;;;;-128.00;-1.00;-1.00;105475;1253;1003926;-80
2023/08/29 01:24:58;;;;;;;14.70;10.10;;;;;;;-128.00;-1.00;-1.00;105567;1254;1046886;-80
2023/08/29 01:27:25;;;;;;;14.60;9.70;;;;;;;-128.00;-1.00;-1.00;105464;1254;1061252;-80
2023/08/29 01:29:52;;;;;;;13.40;9.40;;;;;;;-128.00;-1.00;-1.00;105460;1256;1004866;-80
2023/08/29 01:32:18;;;;;;;15.50;10.10;;;;;;;-128.00;-1.00;-1.00;105552;1253;1004384;-80
2023/08/29 01:34:45;;;;;;;15.60;10.60;;;;;;;-128.00;-1.00;-1.00;105460;1252;1004617;-80
2023/08/29 01:37:11;;;;;;;11.50;8.10;;;;;;;-128.00;-1.00;-1.00;105428;1253;1004719;-81
2023/08/29 01:39:38;;;;;;;9.20;7.50;;;;;;;-128.00;-1.00;-1.00;105546;1251;1004273;-80
2023/08/29 01:42:04;;;;;;;8.00;6.70;;;;;;;-128.00;-1.00;-1.00;105422;1252;1003866;-80
2023/08/29 01:44:31;;;;;;;9.40;5.80;;;;;;;-128.00;-1.00;-1.00;105443;1253;1005038;-80
2023/08/29 01:46:57;;;;;;;7.10;4.60;;;;;;;-128.00;-1.00;-1.00;105277;1253;1004674;-80
2023/08/29 01:49:24;;;;;;;7.20;4.50;;;;;;;-128.00;-1.00;-1.00;105431;1253;1003794;-80
2023/08/29 01:51:51;;;;;;;5.30;3.70;;;;;;;-128.00;-1.00;-1.00;105425;1254;1005287;-80
2023/08/29 01:54:17;;;;;;;8.00;4.10;;;;;;;-128.00;-1.00;-1.00;105534;1252;1004182;-80
2023/08/29 01:56:43;;;;;;;8.10;4.10;;;;;;;-128.00;-1.00;-1.00;105560;1253;1005215;-81
2023/08/29 01:59:10;;;;;;;4.50;3.60;;;;;;;-128.00;-1.00;-1.00;105484;1252;1005061;-80
2023/08/29 02:01:37;;;;;;;3.70;3.20;;;;;;;-128.00;-1.00;-1.00;105546;1254;1004157;-80
2023/08/29 02:04:04;;;;;;;5.60;2.90;;;;;;;-128.00;-1.00;-1.00;105498;1253;1004169;-80
2023/08/29 02:06:31;;;;;;;3.90;3.10;;;;;;;-128.00;-1.00;-1.00;105516;1253;1004384;-80
2023/08/29 02:08:57;;;;;;;4.40;3.20;;;;;;;-128.00;-1.00;-1.00;105574;1253;1005087;-80
2023/08/29 02:11:24;;;;;;;4.60;3.00;;;;;;;-128.00;-1.00;-1.00;105551;1253;1005754;-80
2023/08/29 02:13:51;;;;;;;6.30;3.40;;;;;;;-128.00;-1.00;-1.00;105528;1253;1005081;-80
2023/08/29 02:16:17;;;;;;;4.90;3.50;;;;;;;-128.00;-1.00;-1.00;105412;1254;1004295;-80
2023/08/29 02:18:44;;;;;;;5.30;2.90;;;;;;;-128.00;-1.00;-1.00;105576;1253;1005297;-80
2023/08/29 02:21:10;;;;;;;3.90;2.60;;;;;;;-128.00;-1.00;-1.00;105567;1253;1004513;-80
2023/08/29 02:23:37;;;;;;;5.80;2.80;;;;;;;-128.00;-1.00;-1.00;105550;1254;1004262;-80
2023/08/29 02:26:04;;;;;;;3.80;3.10;;;;;;;-128.00;-1.00;-1.00;105470;1253;1005160;-80
2023/08/29 02:28:36;;;;;;;3.70;2.70;;;;;;;-128.00;-1.00;-1.00;105551;1253;1003768;-80
2023/08/29 02:31:07;;;;;;;3.60;2.90;;;;;;;-128.00;-1.00;-1.00;105482;1254;1057816;-81
2023/08/29 02:33:36;;;;;;;5.10;2.80;;;;;;;-128.00;-1.00;-1.00;105563;1252;1059847;-80
2023/08/29 02:36:06;;;;;;;5.00;2.30;;;;;;;-128.00;-1.00;-1.00;105602;1253;1045283;-80
2023/08/29 02:38:33;;;;;;;3.30;2.70;;;;;;;-128.00;-1.00;-1.00;105718;1253;1046763;-80
2023/08/29 02:40:59;;;;;;;3.00;2.70;;;;;;;-128.00;-1.00;-1.00;105405;1253;1003770;-80
2023/08/29 02:43:27;;;;;;;3.30;2.10;;;;;;;-128.00;-1.00;-1.00;105388;1253;1003763;-81
2023/08/29 02:45:53;;;;;;;3.00;2.00;;;;;;;-128.00;-1.00;-1.00;105449;1253;1004136;-80
2023/08/29 02:48:20;;;;;;;4.00;2.70;;;;;;;-128.00;-1.00;-1.00;105452;1253;1004397;-80
2023/08/29 02:50:48;;;;;;;3.90;2.40;;;;;;;-128.00;-1.00;-1.00;105460;1253;1004543;-80
2023/08/29 02:53:18;;;;;;;3.40;2.30;;;;;;;-128.00;-1.00;-1.00;105526;1252;1005052;-80
2023/08/29 02:55:44;;;;;;;3.20;2.20;;;;;;;-128.00;-1.00;-1.00;105540;1254;1058980;-80
2023/08/29 02:58:11;;;;;;;2.80;2.10;;;;;;;-128.00;-1.00;-1.00;105563;1254;1004437;-80
2023/08/29 03:00:37;;;;;;;3.60;2.30;;;;;;;-128.00;-1.00;-1.00;105573;1253;1004262;-80
2023/08/29 03:03:04;;;;;;;3.20;2.90;;;;;;;-128.00;-1.00;-1.00;105580;1253;1003896;-80
2023/08/29 03:05:31;;;;;;;2.40;2.00;;;;;;;-128.00;-1.00;-1.00;105645;1253;1004355;-80
2023/08/29 03:07:59;;;;;;;4.10;2.70;;;;;;;-128.00;-1.00;-1.00;105515;1253;1003740;-80
2023/08/29 03:10:25;;;;;;;4.40;2.60;;;;;;;-128.00;-1.00;-1.00;105511;1253;1003699;-80
2023/08/29 03:12:52;;;;;;;3.70;3.00;;;;;;;-128.00;-1.00;-1.00;105580;1251;1003930;-80
2023/08/29 03:15:18;;;;;;;3.00;2.50;;;;;;;-128.00;-1.00;-1.00;105611;1253;1004488;-80
2023/08/29 03:17:45;;;;;;;7.80;2.60;;;;;;;-128.00;-1.00;-1.00;105494;1253;1004430;-81
2023/08/29 03:20:11;;;;;;;6.80;3.30;;;;;;;-128.00;-1.00;-1.00;105571;1251;1004626;-80
2023/08/29 03:22:38;;;;;;;3.20;2.80;;;;;;;-128.00;-1.00;-1.00;105570;1253;1003740;-80
2023/08/29 03:25:08;;;;;;;3.60;3.20;;;;;;;-128.00;-1.00;-1.00;105603;1252;1004540;-80
2023/08/29 03:27:34;;;;;;;7.10;3.50;;;;;;;-128.00;-1.00;-1.00;105526;1252;1046487;-80
2023/08/29 03:30:00;;;;;;;6.90;3.80;;;;;;;-128.00;-1.00;-1.00;105594;1252;1004295;-81
2023/08/29 03:32:27;;;;;;;7.20;3.60;;;;;;;-128.00;-1.00;-1.00;105539;1254;1004552;-80
2023/08/29 03:34:54;;;;;;;6.00;3.50;;;;;;;-128.00;-1.00;-1.00;105528;1252;1004904;-80
2023/08/29 03:37:20;;;;;;;6.40;2.60;;;;;;;-128.00;-1.00;-1.00;105654;1253;1004654;-80
2023/08/29 03:39:47;;;;;;;9.20;3.10;;;;;;;-128.00;-1.00;-1.00;105565;1253;1005078;-80
2023/08/29 03:42:14;;;;;;;5.60;2.70;;;;;;;-128.00;-1.00;-1.00;105406;1253;1003266;-80
2023/08/29 03:44:40;;;;;;;4.80;2.70;;;;;;;-128.00;-1.00;-1.00;105392;1253;1003582;-80
2023/08/29 03:47:07;;;;;;;5.00;3.00;;;;;;;-128.00;-1.00;-1.00;105424;1254;1004319;-80
2023/08/29 03:49:33;;;;;;;7.30;3.30;;;;;;;-128.00;-1.00;-1.00;105431;1253;1004039;-80
2023/08/29 03:52:00;;;;;;;9.20;4.20;;;;;;;-128.00;-1.00;-1.00;105452;1253;1003461;-80
2023/08/29 03:54:26;;;;;;;8.10;3.60;;;;;;;-128.00;-1.00;-1.00;105595;1253;1004528;-80
2023/08/29 03:56:52;;;;;;;6.60;3.00;;;;;;;-128.00;-1.00;-1.00;105589;1253;1004214;-80
2023/08/29 03:59:19;;;;;;;11.00;4.20;;;;;;;-128.00;-1.00;-1.00;105575;1253;1003472;-80
2023/08/29 04:01:45;;;;;;;34.00;11.80;;;;;;;-128.00;-1.00;-1.00;105594;1252;1004269;-80
2023/08/29 04:04:13;;;;;;;12.50;5.40;;;;;;;-128.00;-1.00;-1.00;105584;1253;1003855;-80
2023/08/29 04:06:40;;;;;;;9.50;3.60;;;;;;;-128.00;-1.00;-1.00;105484;1253;1004119;-80
2023/08/29 04:09:08;;;;;;;4.20;3.10;;;;;;;-128.00;-1.00;-1.00;105553;1251;1003902;-80
2023/08/29 04:11:35;;;;;;;9.00;3.10;;;;;;;-128.00;-1.00;-1.00;105511;1253;1059946;-80
2023/08/29 04:14:01;;;;;;;4.90;3.30;;;;;;;-128.00;-1.00;-1.00;105554;1253;1003364;-80
2023/08/29 04:16:28;;;;;;;7.70;4.60;;;;;;;-128.00;-1.00;-1.00;105572;1252;1004288;-80
2023/08/29 04:18:54;;;;;;;9.60;3.80;;;;;;;-128.00;-1.00;-1.00;105589;1252;1004271;-80
2023/08/29 04:21:21;;;;;;;5.60;3.20;;;;;;;-128.00;-1.00;-1.00;105557;1252;1003388;-80
2023/08/29 04:23:47;;;;;;;4.50;2.80;;;;;;;-128.00;-1.00;-1.00;105544;1253;1004520;-79
2023/08/29 04:26:14;;;;;;;4.90;3.60;;;;;;;-128.00;-1.00;-1.00;105542;1253;1004796;-80
2023/08/29 04:28:40;;;;;;;10.50;3.90;;;;;;;-128.00;-1.00;-1.00;105562;1254;1004116;-80
2023/08/29 04:31:10;;;;;;;5.70;3.70;;;;;;;-128.00;-1.00;-1.00;105589;1252;1004616;-80
2023/08/29 04:33:36;;;;;;;6.60;3.50;;;;;;;-128.00;-1.00;-1.00;105575;1253;1057977;-80
2023/08/29 04:36:03;;;;;;;9.10;4.30;;;;;;;-128.00;-1.00;-1.00;105545;1253;1005067;-80
2023/08/29 04:38:31;;;;;;;4.40;3.10;;;;;;;-128.00;-1.00;-1.00;105564;1253;1004432;-80
2023/08/29 04:40:58;;;;;;;9.50;4.00;;;;;;;-128.00;-1.00;-1.00;105526;1252;1004645;-80
2023/08/29 04:43:24;;;;;;;11.80;3.70;;;;;;;-128.00;-1.00;-1.00;105425;1253;1004030;-80
2023/08/29 04:45:51;;;;;;;5.90;3.10;;;;;;;-128.00;-1.00;-1.00;105418;1253;1004431;-80
2023/08/29 04:48:18;;;;;;;6.70;4.10;;;;;;;-128.00;-1.00;-1.00;105405;1253;1003952;-80
2023/08/29 04:50:47;;;;;;;4.00;3.30;;;;;;;-128.00;-1.00;-1.00;105378;1253;1004526;-80
2023/08/29 04:53:14;;;;;;;6.10;3.10;;;;;;;-128.00;-1.00;-1.00;105445;1253;1046877;-80
2023/08/29 04:55:40;;;;;;;7.20;4.00;;;;;;;-128.00;-1.00;-1.00;105392;1253;1004058;-80
2023/08/29 04:58:07;;;;;;;11.90;3.30;;;;;;;-128.00;-1.00;-1.00;105571;1253;1004501;-81
2023/08/29 05:00:33;;;;;;;4.20;3.80;;;;;;;-128.00;-1.00;-1.00;105382;1253;1004655;-80
2023/08/29 05:03:00;;;;;;;8.50;4.40;;;;;;;-128.00;-1.00;-1.00;105395;1253;1006294;-80
2023/08/29 05:05:26;;;;;;;10.30;5.50;;;;;;;-128.00;-1.00;-1.00;105465;1253;1003759;-80
2023/08/29 05:07:53;;;;;;;10.20;4.20;;;;;;;-128.00;-1.00;-1.00;105406;1253;1005150;-80
2023/08/29 05:10:19;;;;;;;5.30;3.60;;;;;;;-128.00;-1.00;-1.00;105375;1252;1004350;-80
2023/08/29 05:12:46;;;;;;;10.00;3.20;;;;;;;-128.00;-1.00;-1.00;105396;1253;1004578;-80
2023/08/29 05:15:12;;;;;;;3.40;2.90;;;;;;;-128.00;-1.00;-1.00;105454;1253;1004910;-81
2023/08/29 05:17:39;;;;;;;8.20;3.20;;;;;;;-128.00;-1.00;-1.00;105491;1253;1004723;-80
2023/08/29 05:20:09;;;;;;;4.10;2.60;;;;;;;-128.00;-1.00;-1.00;105261;1254;1004641;-80
2023/08/29 05:22:36;;;;;;;5.80;3.10;;;;;;;-128.00;-1.00;-1.00;105412;1253;1057632;-80
2023/08/29 05:25:03;;;;;;;7.40;4.20;;;;;;;-128.00;-1.00;-1.00;105393;1253;1003692;-83
2023/08/29 05:27:30;;;;;;;14.20;8.30;;;;;;;-128.00;-1.00;-1.00;105425;1252;1004601;-80
2023/08/29 05:29:56;;;;;;;7.40;4.40;;;;;;;-128.00;-1.00;-1.00;105446;1253;1004252;-80
2023/08/29 05:32:23;;;;;;;6.30;3.80;;;;;;;-128.00;-1.00;-1.00;105416;1253;1003982;-80
2023/08/29 05:34:49;;;;;;;12.00;3.80;;;;;;;-128.00;-1.00;-1.00;105396;1252;1004621;-81
2023/08/29 05:37:15;;;;;;;10.00;4.00;;;;;;;-128.00;-1.00;-1.00;105417;1253;1004508;-80
2023/08/29 05:39:42;;;;;;;4.60;3.70;;;;;;;-128.00;-1.00;-1.00;105411;1252;1005044;-81
2023/08/29 05:42:08;;;;;;;4.40;3.10;;;;;;;-128.00;-1.00;-1.00;105397;1252;1004188;-81
2023/08/29 05:44:35;;;;;;;4.50;3.60;;;;;;;-128.00;-1.00;-1.00;105393;1253;1003857;-80
2023/08/29 05:47:01;;;;;;;5.90;3.20;;;;;;;-128.00;-1.00;-1.00;105394;1253;1004592;-80
2023/08/29 05:49:28;;;;;;;8.50;4.10;;;;;;;-128.00;-1.00;-1.00;105412;1252;1004202;-80
2023/08/29 05:51:54;;;;;;;5.40;4.10;;;;;;;-128.00;-1.00;-1.00;105362;1255;1004734;-80
2023/08/29 05:54:21;;;;;;;4.90;3.70;;;;;;;-128.00;-1.00;-1.00;105461;1252;1004521;-80
2023/08/29 05:56:47;;;;;;;6.00;4.30;;;;;;;-128.00;-1.00;-1.00;105519;1253;1004106;-80
2023/08/29 05:59:15;;;;;;;8.20;4.40;;;;;;;-128.00;-1.00;-1.00;105396;1254;1003976;-80
2023/08/29 06:01:42;;;;;;;9.30;5.10;;;;;;;-128.00;-1.00;-1.00;105369;1252;1004474;-80
2023/08/29 06:04:08;;;;;;;8.70;5.30;;;;;;;-128.00;-1.00;-1.00;105443;1254;1004284;-80
2023/08/29 06:06:38;;;;;;;20.10;9.10;;;;;;;-128.00;-1.00;-1.00;105503;1252;1003930;-80
2023/08/29 06:09:08;;;;;;;14.90;8.30;;;;;;;-128.00;-1.00;-1.00;105363;1252;1061869;-80
2023/08/29 06:11:35;;;;;;;13.40;9.90;;;;;;;-128.00;-1.00;-1.00;105381;1255;1057519;-80
2023/08/29 06:14:01;;;;;;;11.20;6.00;;;;;;;-128.00;-1.00;-1.00;105419;1253;1004814;-80
2023/08/29 06:16:28;;;;;;;13.60;8.90;;;;;;;-128.00;-1.00;-1.00;105377;1253;1004371;-81
2023/08/29 06:18:56;;;;;;;16.50;8.80;;;;;;;-128.00;-1.00;-1.00;105475;1252;1004826;-81
2023/08/29 06:21:22;;;;;;;13.40;6.90;;;;;;;-128.00;-1.00;-1.00;105286;1254;1004074;-81
2023/08/29 06:23:49;;;;;;;8.80;6.50;;;;;;;-128.00;-1.00;-1.00;105317;1254;1004687;-80
2023/08/29 06:26:16;;;;;;;10.40;7.30;;;;;;;-128.00;-1.00;-1.00;105443;1254;1004040;-81
2023/08/29 06:28:42;;;;;;;12.90;6.50;;;;;;;-128.00;-1.00;-1.00;105391;1254;1003316;-81
2023/08/29 06:31:09;;;;;;;11.40;7.20;;;;;;;-128.00;-1.00;-1.00;105380;1253;1004522;-81
2023/08/29 06:33:37;;;;;;;10.80;8.00;;;;;;;-128.00;-1.00;-1.00;105372;1254;1004982;-80
2023/08/29 06:36:03;;;;;;;9.70;6.20;;;;;;;-128.00;-1.00;-1.00;105345;1252;1004195;-81
2023/08/29 06:38:30;;;;;;;8.90;5.90;;;;;;;-128.00;-1.00;-1.00;105456;1252;1003702;-82
2023/08/29 06:40:57;;;;;;;9.50;6.10;;;;;;;-128.00;-1.00;-1.00;105392;1253;1004380;-81
2023/08/29 06:43:24;;;;;;;8.20;5.60;;;;;;;-128.00;-1.00;-1.00;105363;1254;1004442;-81
2023/08/29 06:45:50;;;;;;;8.70;6.60;;;;;;;-128.00;-1.00;-1.00;105231;1254;1004243;-80
2023/08/29 06:48:17;;;;;;;14.50;7.20;;;;;;;-128.00;-1.00;-1.00;105297;1253;1004302;-80
2023/08/29 06:50:45;;;;;;;10.60;6.70;;;;;;;-128.00;-1.00;-1.00;105171;1254;1005141;-80
2023/08/29 06:53:11;;;;;;;10.60;5.50;;;;;;;-128.00;-1.00;-1.00;105340;1253;1004199;-81
2023/08/29 06:55:38;;;;;;;11.10;7.00;;;;;;;-128.00;-1.00;-1.00;105339;1254;1004165;-81
2023/08/29 06:58:05;;;;;;;7.00;6.20;;;;;;;-128.00;-1.00;-1.00;105198;1254;1004352;-79
2023/08/29 07:00:32;;;;;;;11.90;7.40;;;;;;;-128.00;-1.00;-1.00;105199;1255;1004394;-81
2023/08/29 07:02:59;;;;;;;10.90;7.30;;;;;;;-128.00;-1.00;-1.00;105144;1253;1005076;-80
2023/08/29 07:05:28;;;;;;;10.30;7.60;;;;;;;-128.00;-1.00;-1.00;105191;1252;1004448;-81
2023/08/29 07:07:56;;;;;;;11.10;7.60;;;;;;;-128.00;-1.00;-1.00;105294;1252;1046730;-81
2023/08/29 07:10:22;;;;;;;11.00;6.10;;;;;;;-128.00;-1.00;-1.00;105338;1253;1004166;-81
2023/08/29 07:12:48;;;;;;;9.40;6.50;;;;;;;-128.00;-1.00;-1.00;104663;1258;1004870;-79
2023/08/29 07:15:15;;;;;;;8.00;6.70;;;;;;;-128.00;-1.00;-1.00;105394;1253;1004503;-80
2023/08/29 07:17:42;;;;;;;8.80;6.20;;;;;;;-128.00;-1.00;-1.00;105367;1254;1003846;-80
2023/08/29 07:20:08;;;;;;;7.70;6.30;;;;;;;-128.00;-1.00;-1.00;105336;1253;1004083;-79
2023/08/29 07:22:36;;;;;;;10.30;6.50;;;;;;;-128.00;-1.00;-1.00;104943;1255;1004275;-81
2023/08/29 07:25:03;;;;;;;9.20;7.20;;;;;;;-128.00;-1.00;-1.00;104510;1257;1004114;-81
2023/08/29 07:27:30;;;;;;;13.50;7.20;;;;;;;-128.00;-1.00;-1.00;105209;1253;1003976;-81
2023/08/29 07:29:56;;;;;;;7.30;6.30;;;;;;;-128.00;-1.00;-1.00;105097;1253;1003860;-81
2023/08/29 07:32:23;;;;;;;10.30;5.90;;;;;;;-128.00;-1.00;-1.00;104849;1257;1003765;-81
2023/08/29 07:34:51;;;;;;;8.90;6.80;;;;;;;-128.00;-1.00;-1.00;104791;1253;1005037;-81
2023/08/29 07:37:17;;;;;;;11.30;7.00;;;;;;;-128.00;-1.00;-1.00;105309;1253;1004075;-81
2023/08/29 07:39:44;;;;;;;8.30;5.70;;;;;;;-128.00;-1.00;-1.00;105318;1253;1004472;-80
2023/08/29 07:42:10;;;;;;;7.60;6.60;;;;;;;-128.00;-1.00;-1.00;105319;1253;1004478;-80
2023/08/29 07:44:37;;;;;;;8.30;6.40;;;;;;;-128.00;-1.00;-1.00;105279;1253;1003961;-81
2023/08/29 07:47:04;;;;;;;6.80;5.70;;;;;;;-128.00;-1.00;-1.00;105350;1253;1004599;-81
2023/08/29 07:49:30;;;;;;;6.90;5.30;;;;;;;-128.00;-1.00;-1.00;105300;1254;1004017;-81
2023/08/29 07:51:57;;;;;;;9.60;6.20;;;;;;;-128.00;-1.00;-1.00;105277;1253;1003227;-80
2023/08/29 07:54:24;;;;;;;11.90;5.90;;;;;;;-128.00;-1.00;-1.00;105361;1254;1004314;-80
2023/08/29 07:56:50;;;;;;;9.20;5.70;;;;;;;-128.00;-1.00;-1.00;105511;1254;1004355;-80
2023/08/29 07:59:17;;;;;;;7.20;5.50;;;;;;;-128.00;-1.00;-1.00;105538;1253;1004823;-80
2023/08/29 08:01:44;;;;;;;15.40;5.50;;;;;;;-128.00;-1.00;-1.00;105573;1253;1005157;-80
2023/08/29 08:04:10;;;;;;;6.50;5.70;;;;;;;-128.00;-1.00;-1.00;105518;1253;1004556;-82
2023/08/29 08:06:37;;;;;;;6.40;5.20;;;;;;;-128.00;-1.00;-1.00;105629;1253;1003326;-81
2023/08/29 08:09:04;;;;;;;6.80;5.20;;;;;;;-128.00;-1.00;-1.00;105485;1255;1003845;-81
2023/08/29 08:11:31;;;;;;;8.80;5.60;;;;;;;-128.00;-1.00;-1.00;105576;1253;1004047;-80
2023/08/29 08:13:57;;;;;;;9.50;6.20;;;;;;;-128.00;-1.00;-1.00;105570;1253;1003391;-80
2023/08/29 08:16:24;;;;;;;9.40;6.90;;;;;;;-128.00;-1.00;-1.00;105627;1253;1004323;-81
2023/08/29 08:18:50;;;;;;;6.80;5.80;;;;;;;-128.00;-1.00;-1.00;105613;1253;1004801;-81
2023/08/29 08:21:18;;;;;;;19.60;11.10;;;;;;;-128.00;-1.00;-1.00;105621;1253;1004397;-80
2023/08/29 08:23:47;;;;;;;16.10;11.90;;;;;;;-128.00;-1.00;-1.00;105556;1253;1005212;-80
2023/08/29 08:26:13;;;;;;;7.00;6.30;;;;;;;-128.00;-1.00;-1.00;105537;1255;1004516;-80
2023/08/29 08:28:40;;;;;;;6.90;5.30;;;;;;;-128.00;-1.00;-1.00;105498;1253;1004267;-80
2023/08/29 08:31:06;;;;;;;7.60;6.40;;;;;;;-128.00;-1.00;-1.00;105376;1254;1003296;-80
2023/08/29 08:33:33;;;;;;;5.70;4.60;;;;;;;-128.00;-1.00;-1.00;105542;1253;1004390;-80
2023/08/29 08:35:59;;;;;;;9.70;5.20;;;;;;;-128.00;-1.00;-1.00;105322;1254;1004442;-80
2023/08/29 08:38:26;;;;;;;8.70;6.00;;;;;;;-128.00;-1.00;-1.00;105391;1253;1003992;-81
2023/08/29 08:40:58;;;;;;;6.20;5.60;;;;;;;-128.00;-1.00;-1.00;105350;1254;1004429;-81
2023/08/29 08:43:26;;;;;;;7.10;6.00;;;;;;;-128.00;-1.00;-1.00;105425;1253;1047211;-80
2023/08/29 08:45:52;;;;;;;6.30;5.40;;;;;;;-128.00;-1.00;-1.00;105365;1253;1004002;-81
2023/08/29 08:48:19;;;;;;;10.20;6.50;;;;;;;-128.00;-1.00;-1.00;105446;1254;1004516;-80
2023/08/29 08:50:46;;;;;;;9.20;5.60;;;;;;;-128.00;-1.00;-1.00;105187;1254;1005183;-81
2023/08/29 08:53:12;;;;;;;6.90;5.40;;;;;;;-128.00;-1.00;-1.00;105383;1254;1004763;-80
2023/08/29 08:55:39;;;;;;;10.80;5.90;;;;;;;-128.00;-1.00;-1.00;105315;1254;1004021;-81
2023/08/29 08:58:07;;;;;;;8.90;6.00;;;;;;;-128.00;-1.00;-1.00;105528;1254;1005251;-81
2023/08/29 09:00:34;;;;;;;8.50;5.50;;;;;;;-128.00;-1.00;-1.00;105376;1253;1004262;-81
2023/08/29 09:03:00;;;;;;;7.70;5.80;;;;;;;-128.00;-1.00;-1.00;105357;1253;1004629;-81
2023/08/29 09:05:28;;;;;;;9.10;7.10;;;;;;;-128.00;-1.00;-1.00;105349;1253;1005001;-81
2023/08/29 09:07:54;;;;;;;12.70;7.90;;;;;;;-128.00;-1.00;-1.00;105286;1253;1005391;-81
2023/08/29 09:10:21;;;;;;;11.10;7.20;;;;;;;-128.00;-1.00;-1.00;105390;1253;1004539;-81
2023/08/29 09:12:48;;;;;;;12.30;7.50;;;;;;;-128.00;-1.00;-1.00;105391;1253;1004806;-81
2023/08/29 09:15:16;;;;;;;10.40;6.70;;;;;;;-128.00;-1.00;-1.00;105351;1253;1003834;-81
2023/08/29 09:17:50;;;;;;;7.00;5.70;;;;;;;-128.00;-1.00;-1.00;105515;1254;1004389;-81
2023/08/29 09:20:17;;;;;;;6.80;5.80;;;;;;;-128.00;-1.00;-1.00;105377;1254;1045645;-81
2023/08/29 09:22:44;;;;;;;7.10;6.40;;;;;;;-128.00;-1.00;-1.00;105380;1253;1003772;-81
2023/08/29 09:25:11;;;;;;;8.40;6.20;;;;;;;-128.00;-1.00;-1.00;105394;1253;1004774;-80
2023/08/29 09:27:44;;;;;;;10.40;7.40;;;;;;;-128.00;-1.00;-1.00;105389;1253;1003683;-81
2023/08/29 09:30:12;;;;;;;12.70;6.40;;;;;;;-128.00;-1.00;-1.00;105307;1253;1059212;-80
2023/08/29 09:32:47;;;;;;;9.60;7.40;;;;;;;-128.00;-1.00;-1.00;105311;1253;1004875;-81
2023/08/29 09:35:15;;;;;;;8.10;6.30;;;;;;;-128.00;-1.00;-1.00;105362;1253;1046219;-81
2023/08/29 09:37:50;;;;;;;10.70;7.00;;;;;;;-128.00;-1.00;-1.00;105398;1253;1061575;-80
2023/08/29 09:40:17;;;;;;;10.30;6.10;;;;;;;-128.00;-1.00;-1.00;105394;1253;1057781;-81
2023/08/29 09:42:53;;;;;;;10.10;6.80;;;;;;;-128.00;-1.00;-1.00;105396;1254;1004562;-81
2023/08/29 09:45:20;;;;;;;10.10;6.90;;;;;;;-128.00;-1.00;-1.00;105416;1253;1046351;-81
2023/08/29 09:47:46;;;;;;;12.70;7.50;;;;;;;-128.00;-1.00;-1.00;105406;1253;1005618;-79
2023/08/29 09:50:12;;;;;;;11.00;6.50;;;;;;;-128.00;-1.00;-1.00;105585;1253;1004477;-81
2023/08/29 09:52:39;;;;;;;8.90;6.80;;;;;;;-128.00;-1.00;-1.00;105609;1254;1004551;-81
2023/08/29 09:55:07;;;;;;;7.10;5.90;;;;;;;-128.00;-1.00;-1.00;105273;1257;1004361;-81
2023/08/29 09:57:35;;;;;;;8.40;6.30;;;;;;;-128.00;-1.00;-1.00;105256;1253;1005041;-80
2023/08/29 10:00:04;;;;;;;10.30;6.90;;;;;;;-128.00;-1.00;-1.00;105379;1253;1003342;-80
2023/08/29 10:02:31;;;;;;;9.30;6.80;;;;;;;-128.00;-1.00;-1.00;105217;1253;1060421;-80
2023/08/29 10:05:06;;;;;;;10.10;7.60;;;;;;;-128.00;-1.00;-1.00;105268;1253;1003942;-80
2023/08/29 10:07:37;;;;;;;16.00;7.90;;;;;;;-128.00;-1.00;-1.00;105300;1253;1059946;-82
2023/08/29 10:10:07;;;;;;;9.30;7.30;;;;;;;-128.00;-1.00;-1.00;105330;1254;1046696;-81
2023/08/29 10:12:33;;;;;;;9.00;7.20;;;;;;;-128.00;-1.00;-1.00;105241;1252;1046915;-81
2023/08/29 10:15:00;;;;;;;9.00;7.20;;;;;;;-128.00;-1.00;-1.00;105274;1253;1004690;-80
2023/08/29 10:17:27;;;;;;;12.70;8.20;;;;;;;-128.00;-1.00;-1.00;105412;1253;1003689;-80
2023/08/29 10:19:54;;;;;;;13.50;8.20;;;;;;;-128.00;-1.00;-1.00;105318;1253;1004433;-81
2023/08/29 10:22:21;;;;;;;14.30;8.70;;;;;;;-128.00;-1.00;-1.00;105257;1254;1004181;-81
2023/08/29 10:24:47;;;;;;;10.30;7.80;;;;;;;-128.00;-1.00;-1.00;105357;1255;1003872;-81
2023/08/29 10:27:14;;;;;;;15.00;7.90;;;;;;;-128.00;-1.00;-1.00;105170;1253;1004595;-81
2023/08/29 10:29:40;;;;;;;11.30;8.10;;;;;;;-128.00;-1.00;-1.00;105379;1253;1004046;-81
2023/08/29 10:32:07;;;;;;;13.40;7.30;;;;;;;-128.00;-1.00;-1.00;105384;1253;1004855;-80
2023/08/29 10:34:34;;;;;;;10.50;6.80;;;;;;;-128.00;-1.00;-1.00;105308;1253;1004607;-80
2023/08/29 10:37:00;;;;;;;7.90;6.80;;;;;;;-128.00;-1.00;-1.00;105357;1257;1004111;-81
2023/08/29 10:39:27;;;;;;;9.30;6.70;;;;;;;-128.00;-1.00;-1.00;105370;1253;1005371;-80
2023/08/29 10:41:54;;;;;;;11.10;7.50;;;;;;;-128.00;-1.00;-1.00;105392;1256;1003944;-81
2023/08/29 10:44:34;;;;;;;9.40;7.80;;;;;;;-128.00;-1.00;-1.00;105283;1254;1004156;-80
2023/08/29 10:47:15;;;;;;;11.20;6.60;;;;;;;-128.00;-1.00;-1.00;105339;1253;1047024;-81
2023/08/29 10:49:42;;;;;;;11.40;7.10;;;;;;;-128.00;-1.00;-1.00;105404;1253;1047369;-80
2023/08/29 10:52:10;;;;;;;10.00;6.70;;;;;;;-128.00;-1.00;-1.00;105379;1253;1003985;-81
2023/08/29 10:54:37;;;;;;;13.20;7.30;;;;;;;-128.00;-1.00;-1.00;105432;1253;1003843;-80
2023/08/29 10:57:29;;;;;;;15.10;7.90;;;;;;;-128.00;-1.00;-1.00;105441;1254;1004838;-80
2023/08/29 10:59:56;;;;;;;9.10;6.90;;;;;;;-128.00;-1.00;-1.00;105414;1253;1046697;-80
2023/08/29 11:02:24;;;;;;;10.70;7.30;;;;;;;-128.00;-1.00;-1.00;105440;1254;1005037;-80
2023/08/29 11:04:51;;;;;;;11.50;7.30;;;;;;;-128.00;-1.00;-1.00;105407;1253;1004430;-80
2023/08/29 11:07:24;;;;;;;9.10;6.70;;;;;;;-128.00;-1.00;-1.00;105445;1253;1004247;-80
2023/08/29 11:10:26;;;;;;;12.90;7.50;;;;;;;-128.00;-1.00;-1.00;105441;1253;1059026;-81
2023/08/29 11:13:10;;;;;;;9.40;7.40;;;;;;;-128.00;-1.00;-1.00;104738;1261;1046038;-81